createdAt,value
2022-11-28T00:00:00.507Z,99409.56
2022-11-28T00:00:13.052Z,99413.84
2022-11-28T00:00:25.380Z,99413.84
2022-11-28T00:00:37.481Z,99417.25
2022-11-28T00:00:52.187Z,99412.06
2022-11-28T00:01:06.598Z,99412.06
2022-11-28T00:01:23.645Z,99414.66
2022-11-28T00:01:37.619Z,99415.53
2022-11-28T00:01:49.838Z,99412.13
2022-11-28T00:02:01.938Z,99413.91
2022-11-28T00:02:13.997Z,99415.59
2022-11-28T00:02:26.237Z,99419.88
2022-11-28T00:02:38.380Z,99426.00
2022-11-28T00:02:50.616Z,99422.53
2022-11-28T00:03:02.645Z,99421.63
2022-11-28T00:03:14.971Z,99427.63
2022-11-28T00:03:27.390Z,99428.44
2022-11-28T00:03:39.787Z,99425.00
2022-11-28T00:03:51.935Z,99428.44
2022-11-28T00:04:06.045Z,99430.16
2022-11-28T00:04:18.216Z,99428.41
2022-11-28T00:04:30.302Z,99428.34
2022-11-28T00:04:42.701Z,99429.34
2022-11-28T00:04:54.930Z,99430.22
2022-11-28T00:05:09.682Z,99431.03
2022-11-28T00:05:21.713Z,99425.84
2022-11-28T00:05:36.034Z,99431.94
2022-11-28T00:05:48.610Z,99431.16
2022-11-28T00:06:09.846Z,99427.72
2022-11-28T00:06:22.703Z,99433.75
2022-11-28T00:06:37.499Z,99432.06
2022-11-28T00:06:50.941Z,99431.16
2022-11-28T00:07:03.061Z,99430.47
2022-11-28T00:07:15.260Z,99433.28
2022-11-28T00:07:27.388Z,99425.41
2022-11-28T00:07:39.807Z,99421.91
2022-11-28T00:07:51.831Z,99431.41
2022-11-28T00:08:04.410Z,99427.97
2022-11-28T00:08:16.312Z,99429.69
2022-11-28T00:08:28.233Z,99422.84
2022-11-28T00:08:40.344Z,99424.53
2022-11-28T00:08:52.729Z,99432.25
2022-11-28T00:09:04.717Z,99429.63
2022-11-28T00:09:19.025Z,99427.91
2022-11-28T00:09:31.150Z,99424.44
2022-11-28T00:09:43.057Z,99424.44
2022-11-28T00:09:55.380Z,99418.38
2022-11-28T00:10:07.948Z,99424.34
2022-11-28T00:10:20.226Z,99424.31
2022-11-28T00:10:32.212Z,99422.59
2022-11-28T00:10:44.552Z,99420.94
2022-11-28T00:10:56.500Z,99423.53
2022-11-28T00:11:12.354Z,99426.19
2022-11-28T00:11:24.388Z,99418.38
2022-11-28T00:11:36.367Z,99420.13
2022-11-28T00:11:49.283Z,99421.88
2022-11-28T00:12:01.241Z,99418.47
2022-11-28T00:12:13.561Z,99415.88
2022-11-28T00:12:26.249Z,99417.53
2022-11-28T00:12:40.039Z,99416.69
2022-11-28T00:12:51.967Z,99410.63
2022-11-28T00:13:04.192Z,99411.50
2022-11-28T00:13:16.123Z,99419.25
2022-11-28T00:13:28.622Z,99420.94
2022-11-28T00:13:41.428Z,99420.94
2022-11-28T00:13:54.258Z,99410.63
2022-11-28T00:14:07.071Z,99416.59
2022-11-28T00:14:19.643Z,99415.75
2022-11-28T00:14:31.556Z,99414.84
2022-11-28T00:14:43.622Z,99420.91
2022-11-28T00:14:55.842Z,99415.78
2022-11-28T00:15:08.376Z,99415.91
2022-11-28T00:15:20.352Z,99412.47
2022-11-28T00:15:32.670Z,99410.78
2022-11-28T00:15:44.819Z,99414.19
2022-11-28T00:16:02.163Z,99421.06
2022-11-28T00:16:17.856Z,99408.13
2022-11-28T00:16:29.864Z,99413.31
2022-11-28T00:16:42.217Z,99420.16
2022-11-28T00:16:54.139Z,99415.81
2022-11-28T00:17:06.245Z,99417.53
2022-11-28T00:17:18.118Z,99419.25
2022-11-28T00:17:30.274Z,99423.69
2022-11-28T00:17:42.228Z,99419.53
2022-11-28T00:17:54.649Z,99423.94
2022-11-28T00:18:06.583Z,99418.75
2022-11-28T00:18:18.880Z,99413.56
2022-11-28T00:18:31.305Z,99417.06
2022-11-28T00:18:44.028Z,99417.03
2022-11-28T00:18:56.023Z,99415.25
2022-11-28T00:19:08.738Z,99417.78
2022-11-28T00:19:20.616Z,99416.88
2022-11-28T00:19:32.749Z,99414.41
2022-11-28T00:19:44.647Z,99417.78
2022-11-28T00:19:57.321Z,99410.88
2022-11-28T00:20:09.405Z,99410.88
2022-11-28T00:20:21.702Z,99409.09
2022-11-28T00:20:33.684Z,99413.38
2022-11-28T00:20:45.752Z,99409.94
2022-11-28T00:21:06.402Z,99410.78
2022-11-28T00:21:19.025Z,99403.97
2022-11-28T00:21:31.609Z,99410.88
2022-11-28T00:21:43.807Z,99410.78
2022-11-28T00:21:55.740Z,99408.25
2022-11-28T00:22:08.136Z,99407.44
2022-11-28T00:22:20.166Z,99404.19
2022-11-28T00:22:32.051Z,99404.97
2022-11-28T00:22:43.928Z,99402.44
2022-11-28T00:22:56.016Z,99401.59
2022-11-28T00:23:07.983Z,99403.34
2022-11-28T00:23:19.896Z,99408.47
2022-11-28T00:23:33.094Z,99404.09
2022-11-28T00:23:47.503Z,99409.41
2022-11-28T00:24:00.299Z,99411.16
2022-11-28T00:24:12.342Z,99412.91
2022-11-28T00:24:26.147Z,99405.19
2022-11-28T00:24:39.651Z,99406.06
2022-11-28T00:24:51.938Z,99406.47
2022-11-28T00:25:04.136Z,99412.44
2022-11-28T00:25:16.380Z,99408.19
2022-11-28T00:25:28.256Z,99410.88
2022-11-28T00:25:40.156Z,99403.22
2022-11-28T00:25:59.159Z,99403.41
2022-11-28T00:26:14.562Z,99400.00
2022-11-28T00:26:29.878Z,99400.09
2022-11-28T00:26:42.518Z,99399.19
2022-11-28T00:26:54.499Z,99404.31
2022-11-28T00:27:06.585Z,99393.19
2022-11-28T00:27:18.479Z,99398.41
2022-11-28T00:27:30.469Z,99398.41
2022-11-28T00:27:42.385Z,99402.69
2022-11-28T00:27:54.289Z,99405.34
2022-11-28T00:28:06.184Z,99400.97
2022-11-28T00:28:18.116Z,99399.25
2022-11-28T00:28:30.028Z,99406.22
2022-11-28T00:28:42.373Z,99398.53
2022-11-28T00:28:55.564Z,99399.38
2022-11-28T00:29:08.456Z,99402.88
2022-11-28T00:29:20.408Z,99403.69
2022-11-28T00:29:32.322Z,99402.75
2022-11-28T00:29:44.375Z,99405.25
2022-11-28T00:29:56.873Z,99406.06
2022-11-28T00:30:09.402Z,99406.88
2022-11-28T00:30:21.354Z,99406.81
2022-11-28T00:30:37.365Z,99404.16
2022-11-28T00:30:49.482Z,99405.88
2022-11-28T00:31:01.839Z,99404.97
2022-11-28T00:31:20.035Z,99405.06
2022-11-28T00:31:42.156Z,99404.16
2022-11-28T00:31:55.070Z,99402.41
2022-11-28T00:32:07.189Z,99399.00
2022-11-28T00:32:19.307Z,99406.72
2022-11-28T00:32:31.256Z,99404.97
2022-11-28T00:32:43.325Z,99401.53
2022-11-28T00:32:55.272Z,99402.38
2022-11-28T00:33:07.192Z,99404.94
2022-11-28T00:33:19.472Z,99400.56
2022-11-28T00:33:33.384Z,99409.13
2022-11-28T00:33:46.505Z,99408.22
2022-11-28T00:33:58.837Z,99399.63
2022-11-28T00:34:13.022Z,99406.53
2022-11-28T00:34:25.063Z,99409.06
2022-11-28T00:34:37.891Z,99403.91
2022-11-28T00:34:49.832Z,99406.47
2022-11-28T00:35:01.734Z,99407.34
2022-11-28T00:35:14.308Z,99405.66
2022-11-28T00:35:26.217Z,99407.38
2022-11-28T00:35:38.115Z,99405.66
2022-11-28T00:35:50.344Z,99403.06
2022-11-28T00:36:04.204Z,99408.19
2022-11-28T00:36:17.218Z,99404.72
2022-11-28T00:36:30.838Z,99411.59
2022-11-28T00:36:45.232Z,99408.09
2022-11-28T00:36:57.432Z,99402.94
2022-11-28T00:37:09.407Z,99401.22
2022-11-28T00:37:21.311Z,99399.53
2022-11-28T00:37:33.358Z,99401.19
2022-11-28T00:37:45.435Z,99402.94
2022-11-28T00:37:57.293Z,99403.13
2022-11-28T00:38:09.196Z,99407.41
2022-11-28T00:38:21.092Z,99411.00
2022-11-28T00:38:33.639Z,99405.78
2022-11-28T00:38:45.944Z,99406.66
2022-11-28T00:38:58.091Z,99405.88
2022-11-28T00:39:10.015Z,99406.72
2022-11-28T00:39:23.086Z,99398.97
2022-11-28T00:39:35.000Z,99397.22
2022-11-28T00:39:47.405Z,99402.47
2022-11-28T00:39:59.318Z,99401.56
2022-11-28T00:40:11.607Z,99398.13
2022-11-28T00:40:23.483Z,99396.44
2022-11-28T00:40:35.551Z,99396.56
2022-11-28T00:40:47.696Z,99401.75
2022-11-28T00:41:04.308Z,99395.88
2022-11-28T00:41:19.832Z,99399.25
2022-11-28T00:41:34.917Z,99403.50
2022-11-28T00:41:46.884Z,99403.44
2022-11-28T00:41:58.917Z,99403.47
2022-11-28T00:42:10.870Z,99396.69
2022-11-28T00:42:22.773Z,99396.66
2022-11-28T00:42:34.685Z,99408.63
2022-11-28T00:42:46.609Z,99406.03
2022-11-28T00:42:59.032Z,99397.41
2022-11-28T00:43:12.786Z,99399.97
2022-11-28T00:43:24.661Z,99401.72
2022-11-28T00:43:37.322Z,99403.47
2022-11-28T00:43:50.949Z,99397.41
2022-11-28T00:44:02.854Z,99399.97
2022-11-28T00:44:14.993Z,99403.47
2022-11-28T00:44:26.968Z,99400.00
2022-11-28T00:44:38.872Z,99399.97
2022-11-28T00:44:50.864Z,99396.50
2022-11-28T00:45:02.988Z,99394.72
2022-11-28T00:45:15.006Z,99396.44
2022-11-28T00:45:27.474Z,99405.06
2022-11-28T00:45:39.493Z,99399.97
2022-11-28T00:45:51.883Z,99398.19
2022-11-28T00:46:04.527Z,99398.13
2022-11-28T00:46:17.699Z,99400.72
2022-11-28T00:46:29.985Z,99399.84
2022-11-28T00:46:42.467Z,99397.22
2022-11-28T00:46:54.426Z,99401.53
2022-11-28T00:47:06.608Z,99394.63
2022-11-28T00:47:18.594Z,99402.34
2022-11-28T00:47:30.619Z,99399.81
2022-11-28T00:47:42.523Z,99402.34
2022-11-28T00:47:54.618Z,99396.28
2022-11-28T00:48:06.474Z,99396.28
2022-11-28T00:48:18.496Z,99402.28
2022-11-28T00:48:31.625Z,99397.97
2022-11-28T00:48:43.776Z,99401.41
2022-11-28T00:48:57.885Z,99404.81
2022-11-28T00:49:09.848Z,99405.66
2022-11-28T00:49:21.724Z,99402.22
2022-11-28T00:49:33.699Z,99397.91
2022-11-28T00:49:45.632Z,99403.06
2022-11-28T00:49:57.530Z,99397.91
2022-11-28T00:50:09.670Z,99399.63
2022-11-28T00:50:21.623Z,99401.38
2022-11-28T00:50:33.490Z,99404.13
2022-11-28T00:50:45.387Z,99406.88
2022-11-28T00:51:11.082Z,99408.75
2022-11-28T00:51:26.405Z,99406.22
2022-11-28T00:51:38.509Z,99402.06
2022-11-28T00:51:50.460Z,99402.03
2022-11-28T00:52:02.376Z,99398.56
2022-11-28T00:52:14.277Z,99401.97
2022-11-28T00:52:26.190Z,99401.09
2022-11-28T00:52:38.364Z,99396.78
2022-11-28T00:52:50.393Z,99400.19
2022-11-28T00:53:02.411Z,99398.47
2022-11-28T00:53:14.395Z,99401.03
2022-11-28T00:53:26.583Z,99400.19
2022-11-28T00:53:42.176Z,99397.53
2022-11-28T00:53:55.913Z,99391.50
2022-11-28T00:54:08.272Z,99399.25
2022-11-28T00:54:20.160Z,99403.47
2022-11-28T00:54:32.353Z,99403.47
2022-11-28T00:54:44.374Z,99406.03
2022-11-28T00:54:56.756Z,99398.25
2022-11-28T00:55:08.951Z,99397.38
2022-11-28T00:55:21.200Z,99396.50
2022-11-28T00:55:33.071Z,99400.75
2022-11-28T00:55:45.109Z,99388.72
2022-11-28T00:55:57.184Z,99397.31
2022-11-28T00:56:14.170Z,99399.00
2022-11-28T00:56:30.782Z,99393.84
2022-11-28T00:56:43.139Z,99403.28
2022-11-28T00:56:55.099Z,99395.53
2022-11-28T00:57:07.284Z,99393.78
2022-11-28T00:57:19.197Z,99392.91
2022-11-28T00:57:31.887Z,99392.06
2022-11-28T00:57:43.868Z,99396.38
2022-11-28T00:57:56.157Z,99398.94
2022-11-28T00:58:08.343Z,99398.13
2022-11-28T00:58:20.299Z,99394.66
2022-11-28T00:58:36.475Z,99392.97
2022-11-28T00:58:49.634Z,99391.28
2022-11-28T00:59:01.908Z,99396.50
2022-11-28T00:59:13.952Z,99393.03
2022-11-28T00:59:25.849Z,99393.88
2022-11-28T00:59:38.330Z,99388.81
2022-11-28T00:59:50.273Z,99389.63
2022-11-28T01:00:02.275Z,99393.88
2022-11-28T01:00:14.805Z,99387.03
2022-11-28T01:00:26.727Z,99387.88
2022-11-28T01:00:39.230Z,99393.88
2022-11-28T01:00:51.220Z,99386.94
2022-11-28T01:01:27.589Z,99386.97
2022-11-28T01:01:43.744Z,99387.81
2022-11-28T01:01:55.890Z,99392.97
2022-11-28T01:02:07.897Z,99385.22
2022-11-28T01:02:19.860Z,99383.56
2022-11-28T01:02:32.014Z,99383.53
2022-11-28T01:02:43.953Z,99384.41
2022-11-28T01:02:56.924Z,99381.81
2022-11-28T01:03:08.851Z,99381.78
2022-11-28T01:03:21.042Z,99386.97
2022-11-28T01:03:32.939Z,99382.66
2022-11-28T01:03:46.388Z,99387.72
2022-11-28T01:04:00.880Z,99385.16
2022-11-28T01:04:15.188Z,99383.41
2022-11-28T01:04:27.802Z,99384.22
2022-11-28T01:04:39.851Z,99383.41
2022-11-28T01:04:52.310Z,99385.97
2022-11-28T01:05:04.588Z,99385.97
2022-11-28T01:05:16.703Z,99380.81
2022-11-28T01:05:28.612Z,99380.81
2022-11-28T01:05:43.151Z,99382.53
2022-11-28T01:05:55.163Z,99373.91
2022-11-28T01:06:08.324Z,99380.78
2022-11-28T01:06:40.943Z,99375.63
2022-11-28T01:06:53.432Z,99373.84
2022-11-28T01:07:05.375Z,99379.00
2022-11-28T01:07:17.365Z,99375.56
2022-11-28T01:07:29.398Z,99371.25
2022-11-28T01:07:42.468Z,99376.44
2022-11-28T01:07:54.630Z,99378.19
2022-11-28T01:08:06.534Z,99376.41
2022-11-28T01:08:18.422Z,99366.09
2022-11-28T01:08:30.504Z,99368.75
2022-11-28T01:08:42.450Z,99373.88
2022-11-28T01:08:55.459Z,99367.03
2022-11-28T01:09:13.867Z,99370.44
2022-11-28T01:09:26.049Z,99367.00
2022-11-28T01:09:37.943Z,99357.53
2022-11-28T01:09:49.950Z,99363.56
2022-11-28T01:10:01.908Z,99362.72
2022-11-28T01:10:14.462Z,99356.72
2022-11-28T01:10:27.179Z,99361.09
2022-11-28T01:10:42.197Z,99358.50
2022-11-28T01:10:54.274Z,99360.25
2022-11-28T01:11:13.515Z,99358.53
2022-11-28T01:11:25.817Z,99356.84
2022-11-28T01:11:39.877Z,99355.13
2022-11-28T01:11:53.464Z,99352.56
2022-11-28T01:12:05.742Z,99354.28
2022-11-28T01:12:17.698Z,99350.00
2022-11-28T01:12:29.631Z,99348.28
2022-11-28T01:12:41.551Z,99352.59
2022-11-28T01:12:53.536Z,99352.56
2022-11-28T01:13:05.654Z,99348.28
2022-11-28T01:13:17.580Z,99350.00
2022-11-28T01:13:29.809Z,99344.97
2022-11-28T01:13:41.789Z,99344.91
2022-11-28T01:13:58.382Z,99348.34
2022-11-28T01:14:12.425Z,99349.19
2022-11-28T01:14:26.828Z,99344.94
2022-11-28T01:14:38.713Z,99344.91
2022-11-28T01:14:51.019Z,99350.06
2022-11-28T01:15:04.929Z,99344.91
2022-11-28T01:15:16.894Z,99343.22
2022-11-28T01:15:28.830Z,99350.06
2022-11-28T01:15:41.890Z,99344.91
2022-11-28T01:15:54.266Z,99344.97
2022-11-28T01:16:06.904Z,99343.25
2022-11-28T01:16:18.946Z,99342.41
2022-11-28T01:16:31.041Z,99344.19
2022-11-28T01:16:43.059Z,99342.50
2022-11-28T01:16:55.472Z,99343.31
2022-11-28T01:17:07.404Z,99345.19
2022-11-28T01:17:19.300Z,99342.63
2022-11-28T01:17:31.196Z,99337.41
2022-11-28T01:17:43.096Z,99341.69
2022-11-28T01:17:55.025Z,99338.28
2022-11-28T01:18:07.071Z,99337.38
2022-11-28T01:18:18.977Z,99339.97
2022-11-28T01:18:30.912Z,99339.13
2022-11-28T01:18:42.896Z,99339.13
2022-11-28T01:18:55.088Z,99343.44
2022-11-28T01:19:07.080Z,99341.78
2022-11-28T01:19:19.252Z,99340.03
2022-11-28T01:19:31.269Z,99338.31
2022-11-28T01:19:43.175Z,99350.34
2022-11-28T01:19:55.498Z,99343.47
2022-11-28T01:20:09.122Z,99338.31
2022-11-28T01:20:21.035Z,99343.47
2022-11-28T01:20:32.995Z,99337.47
2022-11-28T01:20:45.060Z,99342.63
2022-11-28T01:20:57.009Z,99347.00
2022-11-28T01:21:09.761Z,99337.50
2022-11-28T01:21:21.865Z,99341.81
2022-11-28T01:21:34.867Z,99341.78
2022-11-28T01:21:46.971Z,99348.63
2022-11-28T01:21:58.960Z,99342.63
2022-11-28T01:22:11.058Z,99341.72
2022-11-28T01:22:22.958Z,99344.28
2022-11-28T01:22:35.038Z,99338.28
2022-11-28T01:22:46.978Z,99345.13
2022-11-28T01:22:59.061Z,99346.84
2022-11-28T01:23:11.273Z,99343.38
2022-11-28T01:23:23.181Z,99350.25
2022-11-28T01:23:35.882Z,99344.25
2022-11-28T01:23:48.349Z,99346.75
2022-11-28T01:24:00.331Z,99344.25
2022-11-28T01:24:12.543Z,99339.09
2022-11-28T01:24:24.416Z,99340.03
2022-11-28T01:24:36.343Z,99340.06
2022-11-28T01:24:48.267Z,99343.47
2022-11-28T01:25:00.303Z,99342.63
2022-11-28T01:25:12.195Z,99346.94
2022-11-28T01:25:24.276Z,99341.72
2022-11-28T01:25:36.351Z,99339.97
2022-11-28T01:25:48.241Z,99340.03
2022-11-28T01:26:01.225Z,99345.31
2022-11-28T01:26:22.765Z,99338.38
2022-11-28T01:26:34.956Z,99341.78
2022-11-28T01:26:46.882Z,99345.22
2022-11-28T01:26:58.900Z,99335.75
2022-11-28T01:27:11.876Z,99346.88
2022-11-28T01:27:23.830Z,99342.63
2022-11-28T01:27:35.774Z,99340.88
2022-11-28T01:27:47.788Z,99343.47
2022-11-28T01:27:59.771Z,99345.19
2022-11-28T01:28:11.720Z,99350.50
2022-11-28T01:28:23.749Z,99344.47
2022-11-28T01:28:35.879Z,99349.63
2022-11-28T01:28:48.376Z,99344.47
2022-11-28T01:29:01.032Z,99350.47
2022-11-28T01:29:13.097Z,99349.56
2022-11-28T01:29:25.523Z,99345.31
2022-11-28T01:29:37.446Z,99345.31
2022-11-28T01:29:49.660Z,99352.16
2022-11-28T01:30:01.775Z,99347.91
2022-11-28T01:30:13.815Z,99349.56
2022-11-28T01:30:25.956Z,99348.69
2022-11-28T01:30:37.888Z,99351.22
2022-11-28T01:30:50.000Z,99351.31
2022-11-28T01:31:07.367Z,99357.31
2022-11-28T01:31:22.408Z,99346.16
2022-11-28T01:31:35.076Z,99355.63
2022-11-28T01:31:47.249Z,99350.47
2022-11-28T01:31:59.334Z,99360.81
2022-11-28T01:32:11.297Z,99357.38
2022-11-28T01:32:23.413Z,99354.00
2022-11-28T01:32:35.329Z,99354.91
2022-11-28T01:32:47.273Z,99357.47
2022-11-28T01:32:59.195Z,99352.31
2022-11-28T01:33:11.080Z,99354.84
2022-11-28T01:33:22.936Z,99354.84
2022-11-28T01:33:35.341Z,99358.31
2022-11-28T01:33:47.850Z,99362.91
2022-11-28T01:34:00.721Z,99351.88
2022-11-28T01:34:12.596Z,99357.97
2022-11-28T01:34:24.717Z,99354.50
2022-11-28T01:34:36.825Z,99356.19
2022-11-28T01:34:49.123Z,99362.19
2022-11-28T01:35:01.051Z,99363.19
2022-11-28T01:35:13.477Z,99364.78
2022-11-28T01:35:25.372Z,99360.53
2022-11-28T01:35:37.747Z,99365.69
2022-11-28T01:35:57.091Z,99355.34
2022-11-28T01:36:10.974Z,99363.00
2022-11-28T01:36:23.596Z,99364.72
2022-11-28T01:36:35.958Z,99360.38
2022-11-28T01:36:47.879Z,99368.06
2022-11-28T01:37:00.386Z,99362.03
2022-11-28T01:37:12.302Z,99370.53
2022-11-28T01:37:24.610Z,99365.44
2022-11-28T01:37:36.633Z,99369.78
2022-11-28T01:37:48.771Z,99375.84
2022-11-28T01:38:00.714Z,99370.63
2022-11-28T01:38:12.663Z,99366.31
2022-11-28T01:38:24.995Z,99371.63
2022-11-28T01:38:37.045Z,99372.50
2022-11-28T01:38:49.737Z,99376.94
2022-11-28T01:39:01.640Z,99370.91
2022-11-28T01:39:15.998Z,99376.91
2022-11-28T01:39:27.917Z,99371.72
2022-11-28T01:39:40.258Z,99376.09
2022-11-28T01:39:52.214Z,99374.38
2022-11-28T01:40:05.159Z,99369.31
2022-11-28T01:40:17.314Z,99372.84
2022-11-28T01:40:29.396Z,99374.47
2022-11-28T01:40:46.958Z,99369.25
2022-11-28T01:40:58.936Z,99368.38
2022-11-28T01:41:12.855Z,99370.03
2022-11-28T01:41:26.927Z,99373.44
2022-11-28T01:41:40.390Z,99368.25
2022-11-28T01:41:52.347Z,99367.34
2022-11-28T01:42:04.259Z,99369.19
2022-11-28T01:42:18.428Z,99370.78
2022-11-28T01:42:30.481Z,99368.16
2022-11-28T01:42:42.380Z,99368.13
2022-11-28T01:42:54.330Z,99365.50
2022-11-28T01:43:06.351Z,99366.31
2022-11-28T01:43:18.918Z,99362.81
2022-11-28T01:43:31.228Z,99369.69
2022-11-28T01:44:15.560Z,99363.56
2022-11-28T01:44:27.586Z,99363.50
2022-11-28T01:44:42.289Z,99362.69
2022-11-28T01:44:54.250Z,99359.22
2022-11-28T01:45:18.610Z,99361.75
2022-11-28T01:45:33.477Z,99362.56
2022-11-28T01:45:45.546Z,99365.16
2022-11-28T01:45:57.525Z,99363.38
2022-11-28T01:46:09.736Z,99367.69
2022-11-28T01:46:21.861Z,99359.91
2022-11-28T01:46:35.893Z,99369.38
2022-11-28T01:46:47.932Z,99366.78
2022-11-28T01:46:59.899Z,99361.59
2022-11-28T01:47:11.930Z,99362.44
2022-11-28T01:47:29.750Z,99357.19
2022-11-28T01:47:42.511Z,99361.50
2022-11-28T01:47:58.656Z,99359.75
2022-11-28T01:48:20.898Z,99359.72
2022-11-28T01:48:37.914Z,99356.25
2022-11-28T01:48:51.174Z,99360.56
2022-11-28T01:49:09.986Z,99353.69
2022-11-28T01:49:29.368Z,99358.00
2022-11-28T01:49:42.336Z,99352.00
2022-11-28T01:49:55.467Z,99357.09
2022-11-28T01:50:08.640Z,99356.19
2022-11-28T01:50:22.377Z,99360.56
2022-11-28T01:50:36.099Z,99355.41
2022-11-28T01:50:52.708Z,99353.69
2022-11-28T01:51:08.809Z,99347.69
2022-11-28T01:51:21.052Z,99357.97
2022-11-28T01:51:34.319Z,99355.41
2022-11-28T01:51:50.929Z,99355.41
2022-11-28T01:52:09.774Z,99351.88
2022-11-28T01:52:23.331Z,99351.00
2022-11-28T01:52:38.562Z,99352.69
2022-11-28T01:52:59.954Z,99349.22
2022-11-28T01:53:12.917Z,99356.13
2022-11-28T01:53:29.391Z,99344.91
2022-11-28T01:53:45.586Z,99345.78
2022-11-28T01:53:59.121Z,99347.44
2022-11-28T01:54:12.198Z,99356.84
2022-11-28T01:54:26.356Z,99345.69
2022-11-28T01:54:41.133Z,99349.13
2022-11-28T01:54:58.903Z,99347.44
2022-11-28T01:55:13.416Z,99345.69
2022-11-28T01:55:28.783Z,99340.50
2022-11-28T01:55:48.635Z,99343.09
2022-11-28T01:56:08.569Z,99345.69
2022-11-28T01:56:24.799Z,99341.38
2022-11-28T01:56:55.057Z,99345.63
2022-11-28T01:57:11.741Z,99341.38
2022-11-28T01:57:25.357Z,99343.97
2022-11-28T01:57:37.323Z,99336.22
2022-11-28T01:57:49.526Z,99340.44
2022-11-28T01:58:01.625Z,99333.56
2022-11-28T01:58:14.147Z,99344.69
2022-11-28T01:58:27.212Z,99339.53
2022-11-28T01:58:45.031Z,99334.38
2022-11-28T01:59:04.509Z,99333.53
2022-11-28T01:59:18.876Z,99334.38
2022-11-28T01:59:35.420Z,99337.84
2022-11-28T01:59:54.363Z,99337.84
2022-11-28T02:00:16.587Z,99334.38
2022-11-28T02:00:28.622Z,99337.84
2022-11-28T02:00:40.549Z,99335.28
2022-11-28T02:00:53.391Z,99340.41
2022-11-28T02:01:07.758Z,99332.69
2022-11-28T02:01:21.546Z,99335.25
2022-11-28T02:01:33.613Z,99334.34
2022-11-28T02:01:46.413Z,99336.94
2022-11-28T02:01:58.477Z,99333.50
2022-11-28T02:02:18.281Z,99339.50
2022-11-28T02:02:38.638Z,99339.50
2022-11-28T02:03:00.548Z,99341.38
2022-11-28T02:03:25.946Z,99343.06
2022-11-28T02:03:46.834Z,99334.38
2022-11-28T02:03:59.392Z,99334.38
2022-11-28T02:04:14.156Z,99335.25
2022-11-28T02:04:27.891Z,99339.50
2022-11-28T02:04:40.350Z,99335.19
2022-11-28T02:04:53.463Z,99330.00
2022-11-28T02:05:06.126Z,99330.00
2022-11-28T02:05:20.915Z,99334.28
2022-11-28T02:05:33.440Z,99339.44
2022-11-28T02:05:45.956Z,99333.38
2022-11-28T02:05:58.152Z,99333.38
2022-11-28T02:06:12.828Z,99336.78
2022-11-28T02:06:26.142Z,99333.38
2022-11-28T02:06:38.016Z,99331.63
2022-11-28T02:06:49.947Z,99331.59
2022-11-28T02:07:01.972Z,99329.03
2022-11-28T02:07:14.363Z,99326.50
2022-11-28T02:07:26.957Z,99333.34
2022-11-28T02:07:39.112Z,99326.41
2022-11-28T02:07:51.922Z,99325.53
2022-11-28T02:08:04.372Z,99328.09
2022-11-28T02:08:16.334Z,99321.22
2022-11-28T02:08:32.939Z,99324.66
2022-11-28T02:08:45.083Z,99317.78
2022-11-28T02:08:57.083Z,99322.06
2022-11-28T02:09:13.662Z,99318.59
2022-11-28T02:09:25.657Z,99311.75
2022-11-28T02:09:37.701Z,99324.66
2022-11-28T02:09:49.618Z,99321.19
2022-11-28T02:10:06.045Z,99318.59
2022-11-28T02:10:27.145Z,99322.00
2022-11-28T02:10:51.708Z,99316.91
2022-11-28T02:11:14.204Z,99318.59
2022-11-28T02:11:49.853Z,99311.75
2022-11-28T02:12:22.960Z,99316.09
2022-11-28T02:12:40.774Z,99308.34
2022-11-28T02:13:27.411Z,99308.47
2022-11-28T02:14:08.338Z,99305.00
2022-11-28T02:14:26.114Z,99306.00
2022-11-28T02:14:59.485Z,99309.38
2022-11-28T02:15:22.546Z,99297.34
2022-11-28T02:16:18.627Z,99303.31
2022-11-28T02:16:49.085Z,99293.06
2022-11-28T02:17:38.459Z,99291.34
2022-11-28T02:18:05.143Z,99293.91
2022-11-28T02:18:38.711Z,99289.59
2022-11-28T02:19:18.352Z,99290.38
2022-11-28T02:20:04.257Z,99291.25
2022-11-28T02:20:53.515Z,99285.13
2022-11-28T02:21:22.996Z,99276.50
2022-11-28T02:21:58.279Z,99269.66
2022-11-28T02:22:41.472Z,99272.28
2022-11-28T02:22:59.300Z,99275.69
2022-11-28T02:23:21.749Z,99272.22
2022-11-28T02:24:22.901Z,99273.94
2022-11-28T02:24:59.927Z,99274.75
2022-11-28T02:25:15.817Z,99273.91
2022-11-28T02:25:27.671Z,99274.00
2022-11-28T02:25:48.305Z,99278.25
2022-11-28T02:26:46.123Z,99280.94
2022-11-28T02:27:19.593Z,99286.13
2022-11-28T02:27:40.263Z,99289.66
2022-11-28T02:28:10.939Z,99291.41
2022-11-28T02:28:34.087Z,99291.75
2022-11-28T02:28:48.812Z,99283.09
2022-11-28T02:29:19.822Z,99290.03
2022-11-28T02:30:02.899Z,99284.03
2022-11-28T02:30:19.879Z,99294.25
2022-11-28T02:31:06.608Z,99289.09
2022-11-28T02:31:39.789Z,99284.03
2022-11-28T02:31:57.128Z,99287.53
2022-11-28T02:32:18.894Z,99289.19
2022-11-28T02:33:22.686Z,99289.91
2022-11-28T02:33:39.827Z,99293.25
2022-11-28T02:33:57.449Z,99295.81
2022-11-28T02:34:18.674Z,99297.50
2022-11-28T02:35:04.249Z,99296.50
2022-11-28T02:35:49.473Z,99297.88
2022-11-28T02:36:25.616Z,99309.22
2022-11-28T02:37:07.215Z,99302.16
2022-11-28T02:37:43.813Z,99306.38
2022-11-28T02:38:04.527Z,99308.91
2022-11-28T02:38:23.000Z,99307.09
2022-11-28T02:38:56.458Z,99317.34
2022-11-28T02:39:25.049Z,99308.78
2022-11-28T02:39:52.770Z,99316.47
2022-11-28T02:40:07.559Z,99316.44
2022-11-28T02:40:26.312Z,99315.59
2022-11-28T02:41:06.633Z,99310.53
2022-11-28T02:41:45.567Z,99316.47
2022-11-28T02:42:18.247Z,99305.16
2022-11-28T02:42:45.121Z,99301.72
2022-11-28T02:43:18.955Z,99299.91
2022-11-28T02:43:43.481Z,99300.75
2022-11-28T02:44:04.686Z,99300.66
2022-11-28T02:44:18.913Z,99306.63
2022-11-28T02:44:41.703Z,99293.75
2022-11-28T02:45:06.441Z,99295.50
2022-11-28T02:45:27.463Z,99302.28
2022-11-28T02:45:57.891Z,99288.44
2022-11-28T02:46:32.035Z,99292.78
2022-11-28T02:46:59.133Z,99288.47
2022-11-28T02:47:32.267Z,99303.13
2022-11-28T02:47:56.381Z,99290.16
2022-11-28T02:48:24.407Z,99289.28
2022-11-28T02:48:42.987Z,99287.50
2022-11-28T02:49:34.166Z,99281.41
2022-11-28T02:50:13.220Z,99282.28
2022-11-28T02:50:31.737Z,99283.16
2022-11-28T02:50:56.331Z,99285.03
2022-11-28T02:51:58.133Z,99278.06
2022-11-28T02:52:15.559Z,99287.50
2022-11-28T02:52:41.759Z,99289.22
2022-11-28T02:52:59.456Z,99295.16
2022-11-28T02:53:20.011Z,99289.97
2022-11-28T02:53:34.012Z,99294.28
2022-11-28T02:53:48.789Z,99290.84
2022-11-28T02:54:03.705Z,99290.09
2022-11-28T02:54:18.485Z,99292.78
2022-11-28T02:54:31.749Z,99291.16
2022-11-28T02:54:44.399Z,99300.63
2022-11-28T02:54:57.111Z,99304.88
2022-11-28T02:55:09.538Z,99299.72
2022-11-28T02:55:22.815Z,99302.31
2022-11-28T02:55:39.374Z,99312.59
2022-11-28T02:55:52.896Z,99306.53
2022-11-28T02:56:05.417Z,99303.94
2022-11-28T02:56:17.390Z,99291.03
2022-11-28T02:56:29.374Z,99293.59
2022-11-28T02:56:52.185Z,99293.59
2022-11-28T02:57:04.252Z,99301.34
2022-11-28T02:57:16.137Z,99303.06
2022-11-28T02:57:38.808Z,99289.28
2022-11-28T02:57:53.618Z,99286.72
2022-11-28T02:58:05.555Z,99291.03
2022-11-28T02:58:18.653Z,99285.91
2022-11-28T02:58:30.601Z,99291.03
2022-11-28T02:58:42.483Z,99289.34
2022-11-28T02:58:54.914Z,99292.91
2022-11-28T02:59:31.073Z,99286.84
2022-11-28T02:59:42.992Z,99290.31
2022-11-28T02:59:55.485Z,99291.28